sensor_id;sensor_type;location;lat;lon;timestamp;P1;durP1;ratioP1;P2;durP2;ratioP2
5127;SDS011;2582;48.770;9.190;2022-10-26T00:00:45;6.20;;;2.40;;
5127;SDS011;2582;48.770;9.190;2022-10-26T00:03:11;8.90;;;3.40;;
5127;SDS011;2582;48.770;9.190;2022-10-26T00:05:37;2.77;;;2.17;;
5127;SDS011;2582;48.770;9.190;2022-10-26T00:08:03;3.23;;;2.50;;
5127;SDS011;2582;48.770;9.190;2022-10-26T00:10:30;4.50;;;2.87;;
5127;SDS011;2582;48.770;9.190;2022-10-26T00:12:57;4.23;;;2.40;;
5127;SDS011;2582;48.770;9.190;2022-10-26T00:15:23;3.63;;;2.17;;
5127;SDS011;2582;48.770;9.190;2022-10-26T00:17:49;4.43;;;2.40;;
5127;SDS011;2582;48.770;9.190;2022-10-26T00:20:15;5.77;;;2.50;;
5127;SDS011;2582;48.770;9.190;2022-10-26T00:22:40;4.10;;;2.30;;
5127;SDS011;2582;48.770;9.190;2022-10-26T00:25:06;5.93;;;2.20;;
5127;SDS011;2582;48.770;9.190;2022-10-26T00:27:32;9.10;;;2.50;;
5127;SDS011;2582;48.770;9.190;2022-10-26T00:29:58;5.43;;;2.80;;
5127;SDS011;2582;48.770;9.190;2022-10-26T00:32:24;3.90;;;2.23;;
5127;SDS011;2582;48.770;9.190;2022-10-26T00:34:50;4.30;;;2.80;;
5127;SDS011;2582;48.770;9.190;2022-10-26T00:37:16;4.43;;;2.33;;
5127;SDS011;2582;48.770;9.190;2022-10-26T00:39:41;3.60;;;2.33;;
5127;SDS011;2582;48.770;9.190;2022-10-26T00:42:10;4.77;;;2.40;;
5127;SDS011;2582;48.770;9.190;2022-10-26T00:47:11;5.40;;;2.53;;
5127;SDS011;2582;48.770;9.190;2022-10-26T00:49:44;3.70;;;2.30;;
5127;SDS011;2582;48.770;9.190;2022-10-26T00:52:13;4.33;;;2.43;;
5127;SDS011;2582;48.770;9.190;2022-10-26T00:54:40;4.93;;;2.33;;
5127;SDS011;2582;48.770;9.190;2022-10-26T00:57:08;3.93;;;2.10;;
5127;SDS011;2582;48.770;9.190;2022-10-26T00:59:34;5.17;;;2.50;;
5127;SDS011;2582;48.770;9.190;2022-10-26T01:02:00;4.17;;;2.30;;
5127;SDS011;2582;48.770;9.190;2022-10-26T01:04:25;4.97;;;2.43;;
5127;SDS011;2582;48.770;9.190;2022-10-26T01:06:51;4.33;;;2.33;;
5127;SDS011;2582;48.770;9.190;2022-10-26T01:09:17;5.83;;;2.23;;
5127;SDS011;2582;48.770;9.190;2022-10-26T01:11:44;3.33;;;2.27;;
5127;SDS011;2582;48.770;9.190;2022-10-26T01:14:10;4.20;;;2.33;;
5127;SDS011;2582;48.770;9.190;2022-10-26T01:16:42;6.70;;;2.50;;
5127;SDS011;2582;48.770;9.190;2022-10-26T01:19:38;4.20;;;2.70;;
5127;SDS011;2582;48.770;9.190;2022-10-26T01:25:40;5.03;;;2.50;;
5127;SDS011;2582;48.770;9.190;2022-10-26T01:30:57;6.27;;;2.57;;
5127;SDS011;2582;48.770;9.190;2022-10-26T01:33:48;3.50;;;2.33;;
5127;SDS011;2582;48.770;9.190;2022-10-26T01:36:18;3.70;;;2.30;;
5127;SDS011;2582;48.770;9.190;2022-10-26T01:41:46;6.17;;;3.00;;
5127;SDS011;2582;48.770;9.190;2022-10-26T01:44:19;4.43;;;2.20;;
5127;SDS011;2582;48.770;9.190;2022-10-26T01:46:48;4.17;;;2.57;;
5127;SDS011;2582;48.770;9.190;2022-10-26T01:49:17;4.13;;;2.50;;
5127;SDS011;2582;48.770;9.190;2022-10-26T01:51:47;4.23;;;2.87;;
5127;SDS011;2582;48.770;9.190;2022-10-26T01:54:13;5.67;;;2.40;;
5127;SDS011;2582;48.770;9.190;2022-10-26T01:56:40;13.07;;;3.13;;
5127;SDS011;2582;48.770;9.190;2022-10-26T01:59:28;5.97;;;2.57;;
5127;SDS011;2582;48.770;9.190;2022-10-26T02:02:31;6.17;;;2.70;;
5127;SDS011;2582;48.770;9.190;2022-10-26T02:05:25;5.83;;;2.70;;
5127;SDS011;2582;48.770;9.190;2022-10-26T02:10:42;4.80;;;2.50;;
5127;SDS011;2582;48.770;9.190;2022-10-26T02:13:44;4.97;;;2.27;;
5127;SDS011;2582;48.770;9.190;2022-10-26T02:21:51;3.60;;;2.03;;
5127;SDS011;2582;48.770;9.190;2022-10-26T02:24:20;7.00;;;2.33;;
5127;SDS011;2582;48.770;9.190;2022-10-26T02:26:47;7.20;;;2.53;;
5127;SDS011;2582;48.770;9.190;2022-10-26T02:29:17;4.63;;;2.23;;
5127;SDS011;2582;48.770;9.190;2022-10-26T02:31:45;2.87;;;2.20;;
5127;SDS011;2582;48.770;9.190;2022-10-26T02:34:12;5.30;;;2.30;;
5127;SDS011;2582;48.770;9.190;2022-10-26T02:36:43;5.60;;;2.80;;
5127;SDS011;2582;48.770;9.190;2022-10-26T02:39:11;4.43;;;2.20;;
5127;SDS011;2582;48.770;9.190;2022-10-26T02:41:38;2.10;;;1.80;;
5127;SDS011;2582;48.770;9.190;2022-10-26T02:44:25;3.20;;;1.90;;
5127;SDS011;2582;48.770;9.190;2022-10-26T02:46:53;4.03;;;1.60;;
5127;SDS011;2582;48.770;9.190;2022-10-26T02:49:20;3.00;;;2.00;;
5127;SDS011;2582;48.770;9.190;2022-10-26T02:51:51;3.50;;;1.83;;
5127;SDS011;2582;48.770;9.190;2022-10-26T02:54:31;6.43;;;1.90;;
5127;SDS011;2582;48.770;9.190;2022-10-26T02:57:08;4.00;;;2.27;;
5127;SDS011;2582;48.770;9.190;2022-10-26T02:59:47;8.13;;;2.70;;
5127;SDS011;2582;48.770;9.190;2022-10-26T03:02:14;4.33;;;2.80;;
5127;SDS011;2582;48.770;9.190;2022-10-26T03:04:41;5.00;;;2.53;;
5127;SDS011;2582;48.770;9.190;2022-10-26T03:07:07;5.90;;;2.70;;
5127;SDS011;2582;48.770;9.190;2022-10-26T03:09:33;4.90;;;2.87;;
5127;SDS011;2582;48.770;9.190;2022-10-26T03:11:58;5.87;;;2.13;;
5127;SDS011;2582;48.770;9.190;2022-10-26T03:14:24;5.73;;;1.90;;
5127;SDS011;2582;48.770;9.190;2022-10-26T03:16:50;2.83;;;2.10;;
5127;SDS011;2582;48.770;9.190;2022-10-26T03:19:15;4.30;;;2.80;;
5127;SDS011;2582;48.770;9.190;2022-10-26T03:21:41;3.07;;;2.20;;
5127;SDS011;2582;48.770;9.190;2022-10-26T03:24:07;4.30;;;2.40;;
5127;SDS011;2582;48.770;9.190;2022-10-26T03:26:33;6.60;;;1.70;;
5127;SDS011;2582;48.770;9.190;2022-10-26T03:28:59;9.50;;;2.47;;
5127;SDS011;2582;48.770;9.190;2022-10-26T03:31:24;3.93;;;2.67;;
5127;SDS011;2582;48.770;9.190;2022-10-26T03:33:50;2.73;;;2.20;;
5127;SDS011;2582;48.770;9.190;2022-10-26T03:36:16;3.70;;;2.00;;
5127;SDS011;2582;48.770;9.190;2022-10-26T03:38:41;5.30;;;2.30;;
5127;SDS011;2582;48.770;9.190;2022-10-26T03:41:07;5.33;;;2.70;;
5127;SDS011;2582;48.770;9.190;2022-10-26T03:43:32;6.20;;;2.40;;
5127;SDS011;2582;48.770;9.190;2022-10-26T03:45:58;4.23;;;3.10;;
5127;SDS011;2582;48.770;9.190;2022-10-26T03:48:24;4.30;;;2.90;;
5127;SDS011;2582;48.770;9.190;2022-10-26T03:50:49;6.03;;;3.17;;
5127;SDS011;2582;48.770;9.190;2022-10-26T03:53:15;5.13;;;2.47;;
5127;SDS011;2582;48.770;9.190;2022-10-26T03:55:42;4.50;;;2.23;;
5127;SDS011;2582;48.770;9.190;2022-10-26T03:58:09;3.90;;;2.30;;
5127;SDS011;2582;48.770;9.190;2022-10-26T04:00:34;2.80;;;2.40;;
5127;SDS011;2582;48.770;9.190;2022-10-26T04:03:00;7.93;;;2.83;;
5127;SDS011;2582;48.770;9.190;2022-10-26T04:05:26;4.00;;;2.13;;
5127;SDS011;2582;48.770;9.190;2022-10-26T04:07:54;6.70;;;2.93;;
5127;SDS011;2582;48.770;9.190;2022-10-26T04:10:21;3.20;;;2.40;;
5127;SDS011;2582;48.770;9.190;2022-10-26T04:12:46;4.03;;;2.50;;
5127;SDS011;2582;48.770;9.190;2022-10-26T04:15:12;4.30;;;3.27;;
5127;SDS011;2582;48.770;9.190;2022-10-26T04:17:38;6.20;;;3.50;;
5127;SDS011;2582;48.770;9.190;2022-10-26T04:20:04;5.10;;;2.77;;
5127;SDS011;2582;48.770;9.190;2022-10-26T04:22:30;2.40;;;2.20;;
5127;SDS011;2582;48.770;9.190;2022-10-26T04:24:55;3.70;;;2.83;;
5127;SDS011;2582;48.770;9.190;2022-10-26T04:27:21;5.23;;;2.50;;
5127;SDS011;2582;48.770;9.190;2022-10-26T04:29:46;6.50;;;3.30;;
5127;SDS011;2582;48.770;9.190;2022-10-26T04:32:12;4.50;;;2.53;;
5127;SDS011;2582;48.770;9.190;2022-10-26T04:34:37;4.07;;;3.03;;
5127;SDS011;2582;48.770;9.190;2022-10-26T04:37:03;6.47;;;3.00;;
5127;SDS011;2582;48.770;9.190;2022-10-26T04:39:28;3.30;;;2.63;;
5127;SDS011;2582;48.770;9.190;2022-10-26T04:41:54;3.63;;;2.67;;
5127;SDS011;2582;48.770;9.190;2022-10-26T04:44:19;3.63;;;2.67;;
5127;SDS011;2582;48.770;9.190;2022-10-26T04:46:45;5.80;;;2.80;;
5127;SDS011;2582;48.770;9.190;2022-10-26T04:49:11;4.40;;;2.40;;
5127;SDS011;2582;48.770;9.190;2022-10-26T04:51:36;6.67;;;2.40;;
5127;SDS011;2582;48.770;9.190;2022-10-26T04:54:02;5.80;;;2.80;;
5127;SDS011;2582;48.770;9.190;2022-10-26T04:56:28;7.73;;;2.60;;
5127;SDS011;2582;48.770;9.190;2022-10-26T04:58:53;4.90;;;2.87;;
5127;SDS011;2582;48.770;9.190;2022-10-26T05:01:19;3.93;;;2.50;;
5127;SDS011;2582;48.770;9.190;2022-10-26T05:03:49;5.20;;;2.30;;
5127;SDS011;2582;48.770;9.190;2022-10-26T05:06:15;4.83;;;2.40;;
5127;SDS011;2582;48.770;9.190;2022-10-26T05:08:40;4.53;;;2.67;;
5127;SDS011;2582;48.770;9.190;2022-10-26T05:11:06;3.70;;;2.53;;
5127;SDS011;2582;48.770;9.190;2022-10-26T05:13:31;5.93;;;2.90;;
5127;SDS011;2582;48.770;9.190;2022-10-26T05:15:57;3.93;;;2.03;;
5127;SDS011;2582;48.770;9.190;2022-10-26T05:18:22;3.73;;;2.37;;
5127;SDS011;2582;48.770;9.190;2022-10-26T05:20:50;2.30;;;2.10;;
5127;SDS011;2582;48.770;9.190;2022-10-26T05:23:17;5.93;;;2.37;;
5127;SDS011;2582;48.770;9.190;2022-10-26T05:25:42;7.20;;;2.27;;
5127;SDS011;2582;48.770;9.190;2022-10-26T05:28:09;4.80;;;2.00;;
5127;SDS011;2582;48.770;9.190;2022-10-26T05:30:37;5.40;;;2.60;;
5127;SDS011;2582;48.770;9.190;2022-10-26T05:33:03;4.57;;;2.53;;
5127;SDS011;2582;48.770;9.190;2022-10-26T05:35:29;2.80;;;2.57;;
5127;SDS011;2582;48.770;9.190;2022-10-26T05:37:55;2.37;;;2.17;;
5127;SDS011;2582;48.770;9.190;2022-10-26T05:40:21;3.60;;;2.50;;
5127;SDS011;2582;48.770;9.190;2022-10-26T05:42:47;4.80;;;2.70;;
5127;SDS011;2582;48.770;9.190;2022-10-26T05:45:14;4.67;;;2.30;;
5127;SDS011;2582;48.770;9.190;2022-10-26T05:47:42;3.27;;;2.10;;
5127;SDS011;2582;48.770;9.190;2022-10-26T05:50:09;3.00;;;2.20;;
5127;SDS011;2582;48.770;9.190;2022-10-26T05:52:42;5.50;;;2.27;;
5127;SDS011;2582;48.770;9.190;2022-10-26T05:55:10;3.40;;;2.00;;
5127;SDS011;2582;48.770;9.190;2022-10-26T05:57:40;3.50;;;2.40;;
5127;SDS011;2582;48.770;9.190;2022-10-26T06:00:11;2.67;;;2.10;;
5127;SDS011;2582;48.770;9.190;2022-10-26T06:03:08;2.50;;;2.10;;
5127;SDS011;2582;48.770;9.190;2022-10-26T06:05:54;6.67;;;2.23;;
5127;SDS011;2582;48.770;9.190;2022-10-26T06:08:23;7.10;;;3.63;;
5127;SDS011;2582;48.770;9.190;2022-10-26T06:10:50;9.93;;;2.83;;
5127;SDS011;2582;48.770;9.190;2022-10-26T06:13:16;4.33;;;2.30;;
5127;SDS011;2582;48.770;9.190;2022-10-26T06:18:38;5.23;;;2.93;;
5127;SDS011;2582;48.770;9.190;2022-10-26T06:27:15;4.63;;;2.20;;
5127;SDS011;2582;48.770;9.190;2022-10-26T06:29:45;3.50;;;2.20;;
5127;SDS011;2582;48.770;9.190;2022-10-26T06:32:25;2.90;;;2.43;;
5127;SDS011;2582;48.770;9.190;2022-10-26T06:34:53;2.60;;;2.10;;
5127;SDS011;2582;48.770;9.190;2022-10-26T06:37:35;5.77;;;2.57;;
5127;SDS011;2582;48.770;9.190;2022-10-26T06:40:02;10.53;;;3.13;;
5127;SDS011;2582;48.770;9.190;2022-10-26T06:42:30;2.97;;;2.30;;
5127;SDS011;2582;48.770;9.190;2022-10-26T06:44:56;3.27;;;2.30;;
5127;SDS011;2582;48.770;9.190;2022-10-26T06:47:27;4.67;;;2.13;;
5127;SDS011;2582;48.770;9.190;2022-10-26T06:50:24;3.57;;;2.10;;
5127;SDS011;2582;48.770;9.190;2022-10-26T06:53:00;3.80;;;1.63;;
5127;SDS011;2582;48.770;9.190;2022-10-26T06:55:42;5.57;;;3.00;;
5127;SDS011;2582;48.770;9.190;2022-10-26T06:58:17;3.80;;;2.77;;
5127;SDS011;2582;48.770;9.190;2022-10-26T07:00:44;3.20;;;2.47;;
5127;SDS011;2582;48.770;9.190;2022-10-26T07:03:12;4.00;;;2.53;;
5127;SDS011;2582;48.770;9.190;2022-10-26T07:05:38;5.23;;;2.70;;
5127;SDS011;2582;48.770;9.190;2022-10-26T07:08:04;5.93;;;2.70;;
5127;SDS011;2582;48.770;9.190;2022-10-26T07:10:29;3.73;;;2.13;;
5127;SDS011;2582;48.770;9.190;2022-10-26T07:12:56;5.30;;;3.00;;
5127;SDS011;2582;48.770;9.190;2022-10-26T07:15:21;4.93;;;2.80;;
5127;SDS011;2582;48.770;9.190;2022-10-26T07:17:47;2.73;;;2.07;;
5127;SDS011;2582;48.770;9.190;2022-10-26T07:20:14;5.30;;;2.90;;
5127;SDS011;2582;48.770;9.190;2022-10-26T07:22:41;4.70;;;2.93;;
5127;SDS011;2582;48.770;9.190;2022-10-26T07:25:07;3.37;;;2.37;;
5127;SDS011;2582;48.770;9.190;2022-10-26T07:27:34;5.63;;;2.37;;
5127;SDS011;2582;48.770;9.190;2022-10-26T07:30:00;4.47;;;2.77;;
5127;SDS011;2582;48.770;9.190;2022-10-26T07:32:25;6.40;;;2.90;;
5127;SDS011;2582;48.770;9.190;2022-10-26T07:34:51;3.23;;;2.43;;
5127;SDS011;2582;48.770;9.190;2022-10-26T07:37:17;7.60;;;2.70;;
5127;SDS011;2582;48.770;9.190;2022-10-26T07:39:42;4.20;;;2.83;;
5127;SDS011;2582;48.770;9.190;2022-10-26T07:42:08;4.37;;;2.83;;
5127;SDS011;2582;48.770;9.190;2022-10-26T07:44:34;3.37;;;2.90;;
5127;SDS011;2582;48.770;9.190;2022-10-26T07:46:59;3.90;;;2.33;;
5127;SDS011;2582;48.770;9.190;2022-10-26T07:49:25;3.67;;;2.90;;
5127;SDS011;2582;48.770;9.190;2022-10-26T07:51:50;4.60;;;2.77;;
5127;SDS011;2582;48.770;9.190;2022-10-26T07:54:16;3.93;;;2.67;;
5127;SDS011;2582;48.770;9.190;2022-10-26T07:56:41;4.07;;;3.10;;
5127;SDS011;2582;48.770;9.190;2022-10-26T07:59:07;4.03;;;2.90;;
5127;SDS011;2582;48.770;9.190;2022-10-26T08:01:34;4.40;;;2.80;;
5127;SDS011;2582;48.770;9.190;2022-10-26T08:04:00;6.30;;;2.60;;
5127;SDS011;2582;48.770;9.190;2022-10-26T08:06:26;4.03;;;2.97;;
5127;SDS011;2582;48.770;9.190;2022-10-26T08:08:51;3.30;;;2.33;;
5127;SDS011;2582;48.770;9.190;2022-10-26T08:11:17;2.90;;;2.60;;
5127;SDS011;2582;48.770;9.190;2022-10-26T08:13:43;2.93;;;2.40;;
5127;SDS011;2582;48.770;9.190;2022-10-26T08:16:08;4.77;;;2.73;;
5127;SDS011;2582;48.770;9.190;2022-10-26T08:18:34;4.97;;;2.60;;
5127;SDS011;2582;48.770;9.190;2022-10-26T08:21:00;4.33;;;2.90;;
5127;SDS011;2582;48.770;9.190;2022-10-26T08:23:28;10.70;;;3.50;;
5127;SDS011;2582;48.770;9.190;2022-10-26T08:26:00;4.10;;;3.00;;
5127;SDS011;2582;48.770;9.190;2022-10-26T08:28:27;3.37;;;2.60;;
5127;SDS011;2582;48.770;9.190;2022-10-26T08:30:53;5.33;;;3.07;;
5127;SDS011;2582;48.770;9.190;2022-10-26T08:33:19;5.20;;;2.53;;
5127;SDS011;2582;48.770;9.190;2022-10-26T08:35:45;5.27;;;2.47;;
5127;SDS011;2582;48.770;9.190;2022-10-26T08:38:10;4.13;;;2.33;;
5127;SDS011;2582;48.770;9.190;2022-10-26T08:40:37;4.80;;;2.57;;
5127;SDS011;2582;48.770;9.190;2022-10-26T08:45:37;4.83;;;2.70;;
5127;SDS011;2582;48.770;9.190;2022-10-26T08:48:06;3.67;;;2.90;;
5127;SDS011;2582;48.770;9.190;2022-10-26T08:50:41;4.70;;;2.83;;
5127;SDS011;2582;48.770;9.190;2022-10-26T08:53:26;3.80;;;2.77;;
5127;SDS011;2582;48.770;9.190;2022-10-26T08:56:00;4.17;;;2.57;;
5127;SDS011;2582;48.770;9.190;2022-10-26T08:58:32;6.93;;;3.30;;
5127;SDS011;2582;48.770;9.190;2022-10-26T09:01:09;8.70;;;3.37;;
5127;SDS011;2582;48.770;9.190;2022-10-26T09:03:35;4.13;;;2.77;;
5127;SDS011;2582;48.770;9.190;2022-10-26T09:06:12;3.57;;;2.37;;
5127;SDS011;2582;48.770;9.190;2022-10-26T09:24:53;5.00;;;2.60;;
5127;SDS011;2582;48.770;9.190;2022-10-26T09:29:53;4.33;;;2.87;;
5127;SDS011;2582;48.770;9.190;2022-10-26T09:32:25;4.73;;;2.83;;
5127;SDS011;2582;48.770;9.190;2022-10-26T09:34:58;6.20;;;2.70;;
5127;SDS011;2582;48.770;9.190;2022-10-26T09:37:31;7.53;;;2.80;;
5127;SDS011;2582;48.770;9.190;2022-10-26T09:42:48;4.60;;;3.07;;
5127;SDS011;2582;48.770;9.190;2022-10-26T09:47:59;7.33;;;2.30;;
5127;SDS011;2582;48.770;9.190;2022-10-26T09:50:41;5.47;;;2.80;;
5127;SDS011;2582;48.770;9.190;2022-10-26T09:53:09;7.07;;;2.43;;
5127;SDS011;2582;48.770;9.190;2022-10-26T09:55:38;8.33;;;2.70;;
5127;SDS011;2582;48.770;9.190;2022-10-26T09:58:14;6.97;;;2.80;;
5127;SDS011;2582;48.770;9.190;2022-10-26T10:00:44;5.93;;;2.53;;
5127;SDS011;2582;48.770;9.190;2022-10-26T10:03:17;4.47;;;2.43;;
5127;SDS011;2582;48.770;9.190;2022-10-26T10:05:44;4.67;;;2.73;;
5127;SDS011;2582;48.770;9.190;2022-10-26T10:11:10;4.00;;;2.07;;
5127;SDS011;2582;48.770;9.190;2022-10-26T10:13:40;6.70;;;2.60;;
5127;SDS011;2582;48.770;9.190;2022-10-26T10:16:10;4.10;;;2.30;;
5127;SDS011;2582;48.770;9.190;2022-10-26T10:18:37;6.63;;;2.73;;
5127;SDS011;2582;48.770;9.190;2022-10-26T10:21:05;4.63;;;2.70;;
5127;SDS011;2582;48.770;9.190;2022-10-26T10:23:36;4.30;;;2.30;;
5127;SDS011;2582;48.770;9.190;2022-10-26T10:26:12;7.07;;;4.03;;
5127;SDS011;2582;48.770;9.190;2022-10-26T10:28:41;8.90;;;2.83;;
5127;SDS011;2582;48.770;9.190;2022-10-26T10:34:15;6.23;;;2.87;;
5127;SDS011;2582;48.770;9.190;2022-10-26T10:36:41;5.77;;;2.50;;
5127;SDS011;2582;48.770;9.190;2022-10-26T10:39:07;5.70;;;2.83;;
5127;SDS011;2582;48.770;9.190;2022-10-26T10:41:49;3.80;;;2.43;;
5127;SDS011;2582;48.770;9.190;2022-10-26T10:44:18;4.07;;;2.07;;
5127;SDS011;2582;48.770;9.190;2022-10-26T10:46:49;5.57;;;2.97;;
5127;SDS011;2582;48.770;9.190;2022-10-26T10:49:24;5.33;;;3.17;;
5127;SDS011;2582;48.770;9.190;2022-10-26T10:51:51;3.53;;;1.73;;
5127;SDS011;2582;48.770;9.190;2022-10-26T10:54:40;5.60;;;2.80;;
5127;SDS011;2582;48.770;9.190;2022-10-26T10:57:19;5.40;;;2.50;;
5127;SDS011;2582;48.770;9.190;2022-10-26T11:00:00;3.13;;;2.30;;
5127;SDS011;2582;48.770;9.190;2022-10-26T11:02:32;3.60;;;1.70;;
5127;SDS011;2582;48.770;9.190;2022-10-26T11:08:01;4.90;;;2.17;;
5127;SDS011;2582;48.770;9.190;2022-10-26T11:10:37;4.40;;;2.40;;
5127;SDS011;2582;48.770;9.190;2022-10-26T11:13:07;6.90;;;2.60;;
5127;SDS011;2582;48.770;9.190;2022-10-26T11:15:40;3.97;;;2.83;;
5127;SDS011;2582;48.770;9.190;2022-10-26T11:18:13;4.83;;;2.77;;
5127;SDS011;2582;48.770;9.190;2022-10-26T11:20:48;2.80;;;2.20;;
5127;SDS011;2582;48.770;9.190;2022-10-26T11:23:22;7.03;;;3.57;;
5127;SDS011;2582;48.770;9.190;2022-10-26T11:25:58;4.63;;;2.40;;
5127;SDS011;2582;48.770;9.190;2022-10-26T11:29:03;7.03;;;2.90;;
5127;SDS011;2582;48.770;9.190;2022-10-26T11:31:40;5.13;;;2.50;;
5127;SDS011;2582;48.770;9.190;2022-10-26T11:37:12;6.00;;;2.60;;
5127;SDS011;2582;48.770;9.190;2022-10-26T11:39:45;3.37;;;2.70;;
5127;SDS011;2582;48.770;9.190;2022-10-26T11:42:35;4.57;;;2.63;;
5127;SDS011;2582;48.770;9.190;2022-10-26T11:45:10;4.17;;;2.40;;
5127;SDS011;2582;48.770;9.190;2022-10-26T11:50:38;3.63;;;2.20;;
5127;SDS011;2582;48.770;9.190;2022-10-26T11:53:14;4.73;;;2.47;;
5127;SDS011;2582;48.770;9.190;2022-10-26T11:55:44;5.93;;;2.37;;
5127;SDS011;2582;48.770;9.190;2022-10-26T11:58:14;5.20;;;2.37;;
5127;SDS011;2582;48.770;9.190;2022-10-26T12:00:48;9.30;;;2.30;;
5127;SDS011;2582;48.770;9.190;2022-10-26T12:03:17;7.03;;;2.43;;
5127;SDS011;2582;48.770;9.190;2022-10-26T12:05:48;5.27;;;2.47;;
5127;SDS011;2582;48.770;9.190;2022-10-26T12:08:26;6.37;;;2.53;;
5127;SDS011;2582;48.770;9.190;2022-10-26T12:10:57;5.60;;;2.33;;
5127;SDS011;2582;48.770;9.190;2022-10-26T12:13:39;4.13;;;2.00;;
5127;SDS011;2582;48.770;9.190;2022-10-26T12:19:10;6.40;;;2.40;;
5127;SDS011;2582;48.770;9.190;2022-10-26T12:21:44;4.57;;;2.47;;
5127;SDS011;2582;48.770;9.190;2022-10-26T12:31:55;3.60;;;1.90;;
5127;SDS011;2582;48.770;9.190;2022-10-26T12:34:22;5.27;;;2.33;;
5127;SDS011;2582;48.770;9.190;2022-10-26T12:37:09;4.10;;;2.30;;
5127;SDS011;2582;48.770;9.190;2022-10-26T12:39:46;5.67;;;2.33;;
5127;SDS011;2582;48.770;9.190;2022-10-26T12:47:10;3.87;;;2.10;;
5127;SDS011;2582;48.770;9.190;2022-10-26T12:55:14;6.60;;;2.50;;
5127;SDS011;2582;48.770;9.190;2022-10-26T12:57:58;5.33;;;2.90;;
5127;SDS011;2582;48.770;9.190;2022-10-26T13:00:32;4.90;;;2.07;;
5127;SDS011;2582;48.770;9.190;2022-10-26T13:08:51;5.83;;;1.73;;
5127;SDS011;2582;48.770;9.190;2022-10-26T13:11:29;4.60;;;1.60;;
5127;SDS011;2582;48.770;9.190;2022-10-26T13:14:03;3.57;;;2.23;;
5127;SDS011;2582;48.770;9.190;2022-10-26T13:16:33;4.13;;;1.80;;
5127;SDS011;2582;48.770;9.190;2022-10-26T13:18:59;5.40;;;2.40;;
5127;SDS011;2582;48.770;9.190;2022-10-26T13:21:25;4.90;;;2.47;;
5127;SDS011;2582;48.770;9.190;2022-10-26T13:26:18;5.67;;;2.37;;
5127;SDS011;2582;48.770;9.190;2022-10-26T13:28:53;4.70;;;2.07;;
5127;SDS011;2582;48.770;9.190;2022-10-26T13:33:55;4.23;;;2.47;;
5127;SDS011;2582;48.770;9.190;2022-10-26T13:36:27;6.20;;;2.40;;
5127;SDS011;2582;48.770;9.190;2022-10-26T13:39:04;9.57;;;2.93;;
5127;SDS011;2582;48.770;9.190;2022-10-26T13:41:37;4.07;;;2.40;;
5127;SDS011;2582;48.770;9.190;2022-10-26T13:44:05;5.77;;;3.23;;
5127;SDS011;2582;48.770;9.190;2022-10-26T13:46:35;9.43;;;2.70;;
5127;SDS011;2582;48.770;9.190;2022-10-26T13:49:12;5.70;;;2.50;;
5127;SDS011;2582;48.770;9.190;2022-10-26T13:51:44;9.43;;;2.47;;
5127;SDS011;2582;48.770;9.190;2022-10-26T13:54:29;5.20;;;2.37;;
5127;SDS011;2582;48.770;9.190;2022-10-26T13:59:51;6.40;;;2.50;;
5127;SDS011;2582;48.770;9.190;2022-10-26T14:05:00;3.60;;;2.03;;
5127;SDS011;2582;48.770;9.190;2022-10-26T14:10:02;5.60;;;2.30;;
5127;SDS011;2582;48.770;9.190;2022-10-26T14:12:28;3.90;;;2.07;;
5127;SDS011;2582;48.770;9.190;2022-10-26T14:15:02;4.87;;;2.07;;
5127;SDS011;2582;48.770;9.190;2022-10-26T14:17:31;7.10;;;2.07;;
5127;SDS011;2582;48.770;9.190;2022-10-26T14:19:57;3.83;;;1.93;;
5127;SDS011;2582;48.770;9.190;2022-10-26T14:22:24;6.63;;;2.43;;
5127;SDS011;2582;48.770;9.190;2022-10-26T14:24:56;5.73;;;2.90;;
5127;SDS011;2582;48.770;9.190;2022-10-26T14:27:23;5.33;;;2.33;;
5127;SDS011;2582;48.770;9.190;2022-10-26T14:29:52;7.20;;;2.70;;
5127;SDS011;2582;48.770;9.190;2022-10-26T14:32:19;8.33;;;2.80;;
5127;SDS011;2582;48.770;9.190;2022-10-26T14:34:52;10.73;;;2.47;;
5127;SDS011;2582;48.770;9.190;2022-10-26T14:40:02;4.90;;;2.57;;
5127;SDS011;2582;48.770;9.190;2022-10-26T14:45:00;6.07;;;2.33;;
5127;SDS011;2582;48.770;9.190;2022-10-26T14:47:30;8.23;;;3.20;;
5127;SDS011;2582;48.770;9.190;2022-10-26T14:49:57;5.60;;;2.67;;
5127;SDS011;2582;48.770;9.190;2022-10-26T14:52:25;8.53;;;3.50;;
5127;SDS011;2582;48.770;9.190;2022-10-26T14:55:00;10.13;;;3.90;;
5127;SDS011;2582;48.770;9.190;2022-10-26T14:57:41;8.13;;;2.63;;
5127;SDS011;2582;48.770;9.190;2022-10-26T15:02:45;5.30;;;3.00;;
5127;SDS011;2582;48.770;9.190;2022-10-26T15:05:19;8.23;;;2.50;;
5127;SDS011;2582;48.770;9.190;2022-10-26T15:07:50;6.43;;;2.70;;
5127;SDS011;2582;48.770;9.190;2022-10-26T15:13:10;5.87;;;3.20;;
5127;SDS011;2582;48.770;9.190;2022-10-26T15:15:40;6.60;;;2.57;;
5127;SDS011;2582;48.770;9.190;2022-10-26T15:18:10;4.20;;;2.30;;
5127;SDS011;2582;48.770;9.190;2022-10-26T15:20:46;11.50;;;2.77;;
5127;SDS011;2582;48.770;9.190;2022-10-26T15:23:13;4.70;;;2.30;;
5127;SDS011;2582;48.770;9.190;2022-10-26T15:25:40;6.97;;;2.90;;
5127;SDS011;2582;48.770;9.190;2022-10-26T15:28:26;10.93;;;2.90;;
5127;SDS011;2582;48.770;9.190;2022-10-26T15:33:35;10.27;;;3.27;;
5127;SDS011;2582;48.770;9.190;2022-10-26T15:36:19;6.93;;;2.80;;
5127;SDS011;2582;48.770;9.190;2022-10-26T15:38:46;11.23;;;3.40;;
5127;SDS011;2582;48.770;9.190;2022-10-26T15:41:21;5.40;;;2.97;;
5127;SDS011;2582;48.770;9.190;2022-10-26T15:43:52;13.33;;;3.20;;
5127;SDS011;2582;48.770;9.190;2022-10-26T15:46:22;6.23;;;2.80;;
5127;SDS011;2582;48.770;9.190;2022-10-26T15:48:53;11.47;;;2.90;;
5127;SDS011;2582;48.770;9.190;2022-10-26T15:51:20;6.33;;;3.27;;
5127;SDS011;2582;48.770;9.190;2022-10-26T15:53:46;14.77;;;3.40;;
5127;SDS011;2582;48.770;9.190;2022-10-26T15:56:16;11.40;;;3.70;;
5127;SDS011;2582;48.770;9.190;2022-10-26T15:58:43;10.33;;;2.83;;
5127;SDS011;2582;48.770;9.190;2022-10-26T16:01:13;12.77;;;4.27;;
5127;SDS011;2582;48.770;9.190;2022-10-26T16:03:41;8.83;;;3.50;;
5127;SDS011;2582;48.770;9.190;2022-10-26T16:06:08;7.57;;;3.33;;
5127;SDS011;2582;48.770;9.190;2022-10-26T16:08:39;11.50;;;4.10;;
5127;SDS011;2582;48.770;9.190;2022-10-26T16:11:05;12.93;;;5.77;;
5127;SDS011;2582;48.770;9.190;2022-10-26T16:13:31;9.33;;;5.13;;
5127;SDS011;2582;48.770;9.190;2022-10-26T16:15:56;15.63;;;4.67;;
5127;SDS011;2582;48.770;9.190;2022-10-26T16:18:22;7.67;;;4.53;;
5127;SDS011;2582;48.770;9.190;2022-10-26T16:20:48;7.93;;;4.43;;
5127;SDS011;2582;48.770;9.190;2022-10-26T16:23:13;13.20;;;5.00;;
5127;SDS011;2582;48.770;9.190;2022-10-26T16:25:40;10.30;;;4.53;;
5127;SDS011;2582;48.770;9.190;2022-10-26T16:28:08;12.57;;;4.97;;
5127;SDS011;2582;48.770;9.190;2022-10-26T16:30:36;9.10;;;4.17;;
5127;SDS011;2582;48.770;9.190;2022-10-26T16:33:01;9.87;;;4.23;;
5127;SDS011;2582;48.770;9.190;2022-10-26T16:35:27;8.70;;;4.40;;
5127;SDS011;2582;48.770;9.190;2022-10-26T16:37:53;10.53;;;4.40;;
5127;SDS011;2582;48.770;9.190;2022-10-26T16:40:18;17.43;;;8.53;;
5127;SDS011;2582;48.770;9.190;2022-10-26T16:42:44;18.10;;;13.00;;
5127;SDS011;2582;48.770;9.190;2022-10-26T16:45:10;17.67;;;13.50;;
5127;SDS011;2582;48.770;9.190;2022-10-26T16:47:37;17.27;;;11.73;;
5127;SDS011;2582;48.770;9.190;2022-10-26T16:50:04;12.00;;;9.13;;
5127;SDS011;2582;48.770;9.190;2022-10-26T16:52:32;17.90;;;8.00;;
5127;SDS011;2582;48.770;9.190;2022-10-26T16:54:59;15.40;;;7.10;;
5127;SDS011;2582;48.770;9.190;2022-10-26T16:57:25;13.70;;;8.77;;
5127;SDS011;2582;48.770;9.190;2022-10-26T16:59:51;13.87;;;8.40;;
5127;SDS011;2582;48.770;9.190;2022-10-26T17:02:16;8.70;;;5.60;;
5127;SDS011;2582;48.770;9.190;2022-10-26T17:04:43;10.50;;;5.50;;
5127;SDS011;2582;48.770;9.190;2022-10-26T17:07:09;8.40;;;5.10;;
5127;SDS011;2582;48.770;9.190;2022-10-26T17:09:35;6.77;;;4.90;;
5127;SDS011;2582;48.770;9.190;2022-10-26T17:12:00;10.47;;;5.97;;
5127;SDS011;2582;48.770;9.190;2022-10-26T17:14:26;7.93;;;5.60;;
5127;SDS011;2582;48.770;9.190;2022-10-26T17:16:51;8.47;;;7.00;;
5127;SDS011;2582;48.770;9.190;2022-10-26T17:19:17;17.27;;;7.40;;
5127;SDS011;2582;48.770;9.190;2022-10-26T17:21:42;11.37;;;7.73;;
5127;SDS011;2582;48.770;9.190;2022-10-26T17:24:08;15.80;;;9.37;;
5127;SDS011;2582;48.770;9.190;2022-10-26T17:26:35;10.83;;;8.43;;
5127;SDS011;2582;48.770;9.190;2022-10-26T17:29:01;13.43;;;9.20;;
5127;SDS011;2582;48.770;9.190;2022-10-26T17:31:27;12.97;;;8.47;;
5127;SDS011;2582;48.770;9.190;2022-10-26T17:33:52;16.97;;;12.30;;